Terminal Aerodrome Forecast
Issued by NWS Mt. Holly, NJ

Home | Current Version | Previous Version | Text Only | Print | Product List | Glossary On
Versions: 1 2 3 4 5 6 7 8 9 10 11 12 13 14 15 16 17 18 19 20 21 22 23 24
000
FTUS41 KPHI 162104 AAA
TAFPHL
TAF AMD
KPHL 162104Z 1621/1724 30004KT P6SM FEW030 OVC200
      TEMPO 1622/1702 BKN030
     FM170200 34003KT P6SM OVC030
      TEMPO 1704/1707 -RA
     FM170700 33005KT 5SM -RASN OVC015
     FM170900 33006KT 2SM -SN OVC015
     FM171300 32008KT P6SM OVC016
     FM171500 31011KT P6SM BKN045=

USA.gov is the U.S. government's official web portal to all federal, state and local government web resources and services.